createdAt,value
2018-01-28T00:00:29.254Z,-2.99
2018-01-28T00:02:57.849Z,-3.03
2018-01-28T00:05:26.370Z,-3.30
2018-01-28T00:07:54.351Z,-3.49
2018-01-28T00:10:23.377Z,-3.32
2018-01-28T00:12:51.257Z,-3.28
2018-01-28T00:15:19.371Z,-3.43
2018-01-28T00:17:47.243Z,-3.51
2018-01-28T00:20:15.430Z,-3.64
2018-01-28T00:22:46.295Z,-3.47
2018-01-28T00:25:14.264Z,-3.27
2018-01-28T00:27:43.238Z,-3.15
2018-01-28T00:30:11.330Z,-3.17
2018-01-28T00:32:39.299Z,-3.26
2018-01-28T00:35:08.081Z,-3.29
2018-01-28T00:37:36.648Z,-3.18
2018-01-28T00:40:04.738Z,-3.08
2018-01-28T00:42:32.630Z,-3.04
2018-01-28T00:45:00.804Z,-2.98
2018-01-28T00:47:28.838Z,-2.93
2018-01-28T00:49:58.364Z,-2.86
2018-01-28T00:52:26.435Z,-2.89
2018-01-28T00:54:54.167Z,-3.14
2018-01-28T00:57:21.979Z,-3.34
2018-01-28T00:59:51.087Z,-3.35
2018-01-28T01:02:18.805Z,-3.34
2018-01-28T01:04:46.794Z,-3.25
2018-01-28T01:07:15.447Z,-3.21
2018-01-28T01:09:43.229Z,-3.19
2018-01-28T01:12:10.986Z,-3.22
2018-01-28T01:14:39.659Z,-3.18
2018-01-28T01:17:07.691Z,-3.10
2018-01-28T01:19:35.431Z,-3.00
2018-01-28T01:22:05.499Z,-3.10
2018-01-28T01:24:34.243Z,-3.08
2018-01-28T01:27:02.319Z,-3.03
2018-01-28T01:29:30.742Z,-3.09
2018-01-28T01:31:58.496Z,-3.01
2018-01-28T01:34:26.516Z,-2.96
2018-01-28T01:36:54.576Z,-2.99
2018-01-28T01:39:22.297Z,-2.97
2018-01-28T01:41:50.904Z,-3.03
2018-01-28T01:44:20.622Z,-3.04
2018-01-28T01:46:48.355Z,-2.87
2018-01-28T01:49:27.905Z,-3.33
2018-01-28T01:51:55.583Z,-3.52
2018-01-28T01:54:24.487Z,-3.47
2018-01-28T01:56:53.377Z,-3.59
2018-01-28T01:59:21.243Z,-3.80
2018-01-28T02:01:49.798Z,-3.81
2018-01-28T02:04:17.485Z,-3.86
2018-01-28T02:06:46.578Z,-3.97
2018-01-28T02:09:14.441Z,-3.82
2018-01-28T02:11:44.580Z,-3.64
2018-01-28T02:14:15.845Z,-3.60
2018-01-28T02:16:43.843Z,-3.54
2018-01-28T02:19:12.281Z,-3.59
2018-01-28T02:21:40.831Z,-3.71
2018-01-28T02:24:08.583Z,-3.67
2018-01-28T02:26:37.564Z,-3.66
2018-01-28T02:29:05.279Z,-3.52
2018-01-28T02:31:32.971Z,-3.52
2018-01-28T02:34:03.713Z,-3.57
2018-01-28T02:36:32.778Z,-3.57
2018-01-28T02:39:01.965Z,-3.72
2018-01-28T02:41:29.966Z,-3.77
2018-01-28T02:43:57.754Z,-3.84
2018-01-28T02:46:25.508Z,-3.65
2018-01-28T02:48:53.471Z,-3.74
2018-01-28T02:51:21.145Z,-3.89
2018-01-28T02:53:53.712Z,-3.97
2018-01-28T02:56:23.358Z,-4.03
2018-01-28T02:58:53.401Z,-4.01
2018-01-28T03:01:21.350Z,-4.05
2018-01-28T03:03:50.706Z,-3.82
2018-01-28T03:06:19.522Z,-3.80
2018-01-28T03:08:49.365Z,-3.59
2018-01-28T03:11:17.163Z,-3.55
2018-01-28T03:13:47.660Z,-3.48
2018-01-28T03:16:15.388Z,-3.51
2018-01-28T03:18:44.228Z,-3.46
2018-01-28T03:21:13.113Z,-3.60
2018-01-28T03:23:41.680Z,-3.75
2018-01-28T03:26:09.478Z,-3.69
2018-01-28T03:28:37.212Z,-3.59
2018-01-28T03:31:09.460Z,-3.74
2018-01-28T03:33:38.204Z,-3.98
2018-01-28T03:36:06.952Z,-3.94
2018-01-28T03:38:34.683Z,-3.96
2018-01-28T03:41:02.603Z,-4.02
2018-01-28T03:43:31.015Z,-4.15
2018-01-28T03:45:59.084Z,-4.23
2018-01-28T03:48:27.885Z,-4.24
2018-01-28T03:50:59.574Z,-4.05
2018-01-28T03:53:29.965Z,-3.85
2018-01-28T03:55:57.721Z,-3.96
2018-01-28T03:58:26.360Z,-3.75
2018-01-28T04:00:54.582Z,-3.78
2018-01-28T04:03:23.280Z,-3.79
2018-01-28T04:05:52.979Z,-3.73
2018-01-28T04:08:25.119Z,-3.65
2018-01-28T04:11:02.105Z,-3.57
2018-01-28T04:13:35.936Z,-3.70
2018-01-28T04:16:03.873Z,-3.61
2018-01-28T04:18:33.466Z,-3.81
2018-01-28T04:21:06.807Z,-3.72
2018-01-28T04:23:34.505Z,-3.61
2018-01-28T04:26:05.069Z,-3.61
2018-01-28T04:28:36.654Z,-3.73
2018-01-28T04:31:05.275Z,-3.58
2018-01-28T04:33:51.657Z,-3.79
2018-01-28T04:36:23.310Z,-3.65
2018-01-28T04:38:53.820Z,-3.89
2018-01-28T04:41:25.442Z,-4.01
2018-01-28T04:43:53.457Z,-4.06
2018-01-28T04:46:23.891Z,-4.03
2018-01-28T04:48:56.157Z,-4.02
2018-01-28T04:54:08.676Z,-3.74
2018-01-28T04:56:36.644Z,-3.80
2018-01-28T04:59:05.155Z,-3.80
2018-01-28T05:01:40.467Z,-4.10
2018-01-28T05:04:08.368Z,-4.30
2018-01-28T05:06:39.358Z,-4.17
2018-01-28T05:09:14.821Z,-4.07
2018-01-28T05:11:47.980Z,-4.11
2018-01-28T05:14:19.421Z,-4.23
2018-01-28T05:16:53.987Z,-4.27
2018-01-28T05:19:28.819Z,-4.30
2018-01-28T05:21:56.687Z,-4.33
2018-01-28T05:24:24.563Z,-4.35
2018-01-28T05:26:53.495Z,-4.28
2018-01-28T05:29:22.339Z,-4.51
2018-01-28T05:31:50.059Z,-4.41
2018-01-28T05:34:17.821Z,-4.30
2018-01-28T05:36:46.700Z,-4.25
2018-01-28T05:39:14.797Z,-4.33
2018-01-28T05:41:42.701Z,-4.24
2018-01-28T05:44:10.755Z,-4.10
2018-01-28T05:46:38.621Z,-4.05
2018-01-28T05:49:06.709Z,-4.04
2018-01-28T05:51:35.578Z,-4.02
2018-01-28T05:54:04.468Z,-4.05
2018-01-28T05:56:34.110Z,-4.03
2018-01-28T05:59:02.882Z,-4.07
2018-01-28T06:01:30.646Z,-3.96
2018-01-28T06:03:59.249Z,-4.02
2018-01-28T06:06:27.481Z,-4.07
2018-01-28T06:08:56.207Z,-4.02
2018-01-28T06:11:27.967Z,-3.98
2018-01-28T06:13:55.734Z,-3.85
2018-01-28T06:16:23.441Z,-3.83
2018-01-28T06:18:53.307Z,-3.87
2018-01-28T06:21:24.262Z,-3.89
2018-01-28T06:23:52.995Z,-3.84
2018-01-28T06:26:21.126Z,-3.96
2018-01-28T06:28:48.971Z,-4.15
2018-01-28T06:31:17.037Z,-4.13
2018-01-28T06:33:45.990Z,-4.04
2018-01-28T06:36:14.801Z,-3.96
2018-01-28T06:38:42.558Z,-3.75
2018-01-28T06:41:11.141Z,-3.64
2018-01-28T06:43:41.468Z,-3.63
2018-01-28T06:46:10.235Z,-3.66
2018-01-28T06:48:38.611Z,-3.68
2018-01-28T06:51:07.019Z,-3.69
2018-01-28T06:53:35.945Z,-3.73
2018-01-28T06:56:03.667Z,-3.75
2018-01-28T06:58:33.378Z,-3.69
2018-01-28T07:01:01.464Z,-3.73
2018-01-28T07:03:29.177Z,-3.60
2018-01-28T07:05:58.180Z,-3.50
2018-01-28T07:08:25.873Z,-3.56
2018-01-28T07:10:59.236Z,-3.69
2018-01-28T07:13:26.998Z,-3.63
2018-01-28T07:15:55.382Z,-3.69
2018-01-28T07:18:24.993Z,-3.76
2018-01-28T07:20:52.916Z,-3.76
2018-01-28T07:23:21.486Z,-3.80
2018-01-28T07:25:59.121Z,-3.70
2018-01-28T07:28:32.954Z,-3.47
2018-01-28T07:31:02.283Z,-3.39
2018-01-28T07:33:34.069Z,-3.61
2018-01-28T07:36:01.847Z,-3.41
2018-01-28T07:38:31.487Z,-3.25
2018-01-28T07:41:08.736Z,-3.26
2018-01-28T07:43:42.367Z,-3.13
2018-01-28T07:46:10.114Z,-2.93
2018-01-28T07:48:37.871Z,-2.75
2018-01-28T07:51:08.436Z,-2.66
2018-01-28T07:53:46.486Z,-2.56
2018-01-28T07:56:57.884Z,-2.33
2018-01-28T07:59:26.007Z,-2.33
2018-01-28T08:02:00.569Z,-2.23
2018-01-28T08:04:32.117Z,-2.16
2018-01-28T08:07:03.758Z,-2.03
2018-01-28T08:12:35.917Z,-1.84
2018-01-28T08:15:03.721Z,-1.72
2018-01-28T08:17:35.241Z,-1.68
2018-01-28T08:20:03.210Z,-1.66
2018-01-28T08:22:32.099Z,-1.43
2018-01-28T08:24:59.906Z,-1.61
2018-01-28T08:30:33.474Z,-1.68
2018-01-28T08:33:02.137Z,-1.78
2018-01-28T08:35:30.158Z,-2.15
2018-01-28T08:37:58.267Z,-1.91
2018-01-28T08:40:30.666Z,-1.60
2018-01-28T08:43:01.114Z,-1.37
2018-01-28T08:45:29.223Z,-1.15
2018-01-28T08:47:57.149Z,-0.91
2018-01-28T08:50:26.191Z,-1.04
2018-01-28T08:52:55.081Z,-0.85
2018-01-28T08:55:23.935Z,-0.75
2018-01-28T08:57:52.273Z,-1.07
2018-01-28T09:00:20.350Z,-0.73
2018-01-28T09:02:48.367Z,-0.76
2018-01-28T09:05:16.272Z,-0.72
2018-01-28T09:07:44.903Z,-0.74
2018-01-28T09:10:13.018Z,-0.73
2018-01-28T09:12:41.308Z,-0.39
2018-01-28T09:15:10.610Z,-0.74
2018-01-28T09:17:38.781Z,-0.56
2018-01-28T09:20:06.936Z,-0.60
2018-01-28T09:22:35.126Z,-0.74
2018-01-28T09:25:03.389Z,-0.74
2018-01-28T09:27:32.709Z,-1.10
2018-01-28T09:30:00.636Z,-1.51
2018-01-28T09:32:29.944Z,-1.10
2018-01-28T09:34:57.847Z,-0.57
2018-01-28T09:37:25.733Z,-0.49
2018-01-28T09:39:53.994Z,-0.70
2018-01-28T09:42:22.370Z,0.04
2018-01-28T09:44:50.452Z,0.34
2018-01-28T09:47:19.302Z,0.38
2018-01-28T09:49:47.211Z,1.09
2018-01-28T09:52:15.394Z,2.30
2018-01-28T09:54:43.170Z,2.11
2018-01-28T09:57:10.955Z,1.57
2018-01-28T09:59:39.509Z,1.84
2018-01-28T10:02:07.401Z,2.00
2018-01-28T10:04:35.293Z,2.78
2018-01-28T10:07:03.295Z,3.10
2018-01-28T10:09:32.451Z,2.96
2018-01-28T10:12:00.280Z,2.69
2018-01-28T10:14:28.406Z,2.17
2018-01-28T10:16:57.834Z,1.82
2018-01-28T10:19:25.904Z,2.33
2018-01-28T10:21:54.540Z,2.69
2018-01-28T10:24:22.284Z,3.86
2018-01-28T10:26:49.984Z,4.04
2018-01-28T10:29:17.996Z,4.17
2018-01-28T10:31:45.904Z,4.22
2018-01-28T10:34:14.074Z,3.64
2018-01-28T10:36:42.544Z,4.26
2018-01-28T10:39:10.610Z,3.56
2018-01-28T10:41:41.530Z,4.08
2018-01-28T10:44:10.610Z,3.61
2018-01-28T10:46:38.747Z,3.23
2018-01-28T10:49:06.719Z,4.82
2018-01-28T10:51:34.840Z,4.92
2018-01-28T10:54:03.728Z,4.16
2018-01-28T10:56:32.717Z,4.00
2018-01-28T10:59:00.797Z,3.97
2018-01-28T11:01:28.809Z,5.04
2018-01-28T11:03:56.934Z,4.10
2018-01-28T11:06:25.008Z,4.70
2018-01-28T11:08:53.287Z,4.98
2018-01-28T11:11:21.325Z,4.82
2018-01-28T11:13:49.428Z,4.85
2018-01-28T11:16:17.296Z,6.02
2018-01-28T11:18:45.462Z,5.76
2018-01-28T11:21:13.593Z,5.79
2018-01-28T11:23:41.723Z,5.54
2018-01-28T11:26:09.649Z,5.59
2018-01-28T11:28:37.470Z,5.91
2018-01-28T11:31:06.110Z,6.67
2018-01-28T11:33:34.083Z,7.52
2018-01-28T11:36:02.976Z,7.62
2018-01-28T11:38:30.791Z,8.04
2018-01-28T11:40:58.630Z,7.71
2018-01-28T11:43:26.697Z,7.53
2018-01-28T11:45:54.737Z,6.65
2018-01-28T11:48:23.472Z,6.04
2018-01-28T11:50:51.397Z,6.36
2018-01-28T11:53:19.398Z,6.54
2018-01-28T11:55:47.472Z,7.32
2018-01-28T11:58:15.500Z,6.94
2018-01-28T12:00:43.590Z,8.52
2018-01-28T12:03:11.378Z,7.70
2018-01-28T12:05:40.884Z,7.35
2018-01-28T12:08:08.854Z,6.61
2018-01-28T12:10:36.883Z,6.67
2018-01-28T12:13:05.004Z,7.24
2018-01-28T12:15:33.266Z,6.94
2018-01-28T12:18:01.210Z,6.86
2018-01-28T12:20:29.075Z,6.78
2018-01-28T12:22:57.284Z,7.83
2018-01-28T12:25:25.354Z,7.57
2018-01-28T12:27:54.354Z,7.15
2018-01-28T12:30:22.516Z,7.70
2018-01-28T12:32:51.212Z,7.54
2018-01-28T12:35:18.973Z,7.07
2018-01-28T12:37:46.795Z,6.72
2018-01-28T12:40:14.713Z,6.84
2018-01-28T12:42:42.931Z,7.00
2018-01-28T12:45:11.774Z,6.42
2018-01-28T12:47:39.851Z,6.84
2018-01-28T12:50:07.916Z,6.70
2018-01-28T12:52:35.901Z,6.44
2018-01-28T12:55:03.958Z,6.49
2018-01-28T12:57:31.930Z,6.47
2018-01-28T12:59:59.751Z,6.55
2018-01-28T13:02:27.619Z,6.48
2018-01-28T13:04:56.042Z,5.80
2018-01-28T13:07:24.104Z,5.84
2018-01-28T13:09:52.189Z,5.74
2018-01-28T13:12:20.111Z,5.54
2018-01-28T13:14:48.125Z,5.93
2018-01-28T13:17:15.828Z,5.63
2018-01-28T13:19:43.557Z,5.67
2018-01-28T13:22:11.325Z,5.74
2018-01-28T13:24:39.080Z,5.90
2018-01-28T13:27:06.797Z,5.44
2018-01-28T13:29:34.568Z,5.57
2018-01-28T13:32:02.277Z,5.62
2018-01-28T13:34:29.987Z,5.69
2018-01-28T13:36:57.724Z,5.58
2018-01-28T13:39:25.462Z,5.50
2018-01-28T13:41:53.154Z,5.43
2018-01-28T13:44:20.955Z,5.30
2018-01-28T13:46:48.760Z,5.48
2018-01-28T13:49:16.497Z,5.44
2018-01-28T13:51:44.238Z,5.30
2018-01-28T13:54:11.987Z,5.02
2018-01-28T13:56:39.783Z,5.27
2018-01-28T13:59:07.516Z,5.16
2018-01-28T14:01:35.278Z,5.28
2018-01-28T14:04:04.033Z,5.25
2018-01-28T14:06:31.933Z,4.76
2018-01-28T14:08:59.972Z,4.67
2018-01-28T14:11:28.250Z,4.36
2018-01-28T14:13:56.196Z,4.45
2018-01-28T14:16:25.220Z,4.46
2018-01-28T14:18:54.309Z,4.30
2018-01-28T14:21:22.350Z,4.61
2018-01-28T14:23:50.247Z,4.56
2018-01-28T14:26:18.833Z,4.42
2018-01-28T14:28:46.711Z,4.63
2018-01-28T14:31:14.556Z,4.70
2018-01-28T14:33:42.466Z,4.59
2018-01-28T14:36:10.295Z,4.41
2018-01-28T14:38:38.129Z,4.35
2018-01-28T14:41:05.871Z,4.50
2018-01-28T14:43:33.926Z,4.07
2018-01-28T14:46:01.872Z,4.07
2018-01-28T14:48:29.701Z,4.20
2018-01-28T14:50:57.541Z,4.14
2018-01-28T14:53:25.245Z,4.10
2018-01-28T14:55:59.643Z,4.07
2018-01-28T14:58:29.065Z,4.13
2018-01-28T15:00:58.331Z,3.93
2018-01-28T15:03:26.193Z,4.27
2018-01-28T15:05:53.916Z,4.25
2018-01-28T15:08:21.659Z,3.98
2018-01-28T15:10:49.396Z,3.80
2018-01-28T15:13:17.182Z,3.75
2018-01-28T15:15:44.899Z,3.81
2018-01-28T15:18:12.719Z,3.71
2018-01-28T15:20:40.498Z,3.64
2018-01-28T15:23:08.252Z,3.81
2018-01-28T15:25:36.868Z,3.58
2018-01-28T15:28:05.685Z,3.58
2018-01-28T15:30:33.444Z,3.50
2018-01-28T15:33:01.266Z,3.50
2018-01-28T15:35:29.043Z,3.42
2018-01-28T15:37:56.809Z,3.16
2018-01-28T15:40:24.605Z,3.23
2018-01-28T15:42:52.410Z,3.19
2018-01-28T15:45:20.198Z,3.29
2018-01-28T15:47:48.058Z,3.29
2018-01-28T15:50:15.873Z,3.27
2018-01-28T15:52:43.810Z,3.31
2018-01-28T15:55:11.601Z,3.08
2018-01-28T15:57:39.387Z,3.08
2018-01-28T16:00:07.381Z,3.19
2018-01-28T16:02:35.273Z,3.17
2018-01-28T16:05:03.175Z,3.20
2018-01-28T16:07:31.068Z,3.18
2018-01-28T16:09:58.839Z,3.09
2018-01-28T16:12:26.558Z,3.16
2018-01-28T16:14:54.417Z,2.88
2018-01-28T16:17:22.174Z,2.81
2018-01-28T16:19:49.950Z,2.89
2018-01-28T16:22:17.685Z,2.66
2018-01-28T16:24:45.454Z,2.76
2018-01-28T16:27:13.170Z,2.72
2018-01-28T16:29:40.904Z,2.66
2018-01-28T16:32:08.747Z,2.62
2018-01-28T16:34:36.528Z,2.75
2018-01-28T16:37:04.316Z,2.75
2018-01-28T16:39:32.038Z,2.65
2018-01-28T16:41:59.807Z,2.58
2018-01-28T16:44:27.510Z,2.64
2018-01-28T16:46:55.283Z,2.67
2018-01-28T16:49:23.069Z,2.73
2018-01-28T16:51:50.858Z,2.74
2018-01-28T16:54:19.454Z,2.86
2018-01-28T16:56:47.882Z,2.73
2018-01-28T16:59:15.720Z,2.72
2018-01-28T17:01:43.492Z,2.67
2018-01-28T17:04:11.340Z,2.65
2018-01-28T17:06:39.142Z,2.64
2018-01-28T17:09:06.943Z,2.70
2018-01-28T17:11:34.719Z,2.71
2018-01-28T17:14:03.131Z,2.59
2018-01-28T17:16:31.810Z,2.64
2018-01-28T17:18:59.610Z,2.67
2018-01-28T17:21:27.533Z,2.64
2018-01-28T17:23:55.384Z,2.59
2018-01-28T17:26:23.239Z,2.60
2018-01-28T17:28:50.997Z,2.56
2018-01-28T17:31:18.758Z,2.61
2018-01-28T17:33:46.538Z,2.62
2018-01-28T17:36:14.392Z,2.69
2018-01-28T17:38:42.229Z,2.64
2018-01-28T17:41:10.076Z,2.67
2018-01-28T17:43:37.967Z,2.45
2018-01-28T17:46:05.815Z,2.62
2018-01-28T17:48:33.620Z,2.65
2018-01-28T17:51:01.347Z,2.61
2018-01-28T17:53:29.075Z,2.59
2018-01-28T17:55:58.043Z,2.86
2018-01-28T17:58:25.808Z,2.82
2018-01-28T18:00:53.514Z,2.78
2018-01-28T18:03:21.293Z,2.76
2018-01-28T18:05:49.058Z,2.74
2018-01-28T18:08:16.806Z,2.67
2018-01-28T18:10:44.569Z,2.66
2018-01-28T18:13:12.417Z,2.59
2018-01-28T18:15:40.194Z,2.64
2018-01-28T18:18:08.030Z,2.55
2018-01-28T18:20:35.816Z,2.51
2018-01-28T18:23:03.535Z,2.85
2018-01-28T18:25:31.289Z,2.78
2018-01-28T18:27:59.136Z,2.72
2018-01-28T18:30:27.055Z,2.63
2018-01-28T18:32:54.850Z,2.60
2018-01-28T18:35:23.270Z,2.45
2018-01-28T18:37:51.315Z,2.52
2018-01-28T18:40:19.377Z,2.57
2018-01-28T18:42:47.465Z,2.60
2018-01-28T18:45:15.535Z,2.52
2018-01-28T18:47:43.982Z,2.54
2018-01-28T18:50:12.297Z,2.52
2018-01-28T18:52:40.841Z,2.47
2018-01-28T18:55:08.835Z,2.51
2018-01-28T18:57:36.646Z,2.39
2018-01-28T19:00:04.675Z,2.44
2018-01-28T19:02:32.579Z,2.48
2018-01-28T19:05:00.407Z,2.47
2018-01-28T19:07:28.304Z,2.38
2018-01-28T19:09:56.306Z,2.39
2018-01-28T19:12:24.256Z,2.45
2018-01-28T19:14:52.083Z,2.50
2018-01-28T19:17:20.831Z,2.55
2018-01-28T19:19:49.149Z,2.62
2018-01-28T19:22:17.394Z,2.63
2018-01-28T19:24:45.156Z,2.63
2018-01-28T19:27:13.147Z,2.65
2018-01-28T19:29:40.926Z,2.85
2018-01-28T19:32:08.685Z,2.66
2018-01-28T19:34:36.542Z,2.53
2018-01-28T19:37:05.516Z,2.56
2018-01-28T19:39:33.388Z,2.50
2018-01-28T19:42:01.408Z,2.43
2018-01-28T19:44:29.396Z,2.45
2018-01-28T19:46:57.457Z,2.44
2018-01-28T19:49:26.507Z,2.43
2018-01-28T19:51:54.597Z,2.47
2018-01-28T19:54:22.538Z,2.36
2018-01-28T19:56:50.522Z,2.40
2018-01-28T19:59:18.371Z,2.40
2018-01-28T20:01:46.210Z,2.40
2018-01-28T20:04:14.041Z,2.35
2018-01-28T20:06:41.933Z,2.35
2018-01-28T20:09:09.984Z,2.32
2018-01-28T20:11:38.966Z,2.36
2018-01-28T20:14:07.266Z,2.38
2018-01-28T20:16:35.324Z,2.42
2018-01-28T20:19:03.397Z,2.38
2018-01-28T20:21:31.443Z,2.35
2018-01-28T20:23:59.575Z,2.37
2018-01-28T20:26:27.668Z,2.42
2018-01-28T20:28:56.886Z,2.53
2018-01-28T20:31:24.909Z,2.65
2018-01-28T20:33:52.835Z,2.73
2018-01-28T20:36:20.600Z,2.80
2018-01-28T20:38:48.679Z,2.89
2018-01-28T20:41:16.770Z,2.86
2018-01-28T20:43:44.672Z,2.84
2018-01-28T20:46:12.927Z,2.96
2018-01-28T20:48:40.872Z,2.53
2018-01-28T20:51:09.041Z,2.47
2018-01-28T20:53:37.108Z,2.39
2018-01-28T20:56:06.005Z,2.34
2018-01-28T20:58:34.033Z,2.28
2018-01-28T21:01:02.269Z,2.49
2018-01-28T21:03:32.064Z,2.42
2018-01-28T21:06:03.375Z,2.30
2018-01-28T21:08:32.446Z,2.12
2018-01-28T21:11:00.461Z,2.11
2018-01-28T21:13:32.027Z,2.09
2018-01-28T21:16:01.455Z,2.02
2018-01-28T21:18:30.453Z,2.04
2018-01-28T21:20:58.624Z,1.98
2018-01-28T21:23:27.508Z,1.94
2018-01-28T21:25:55.614Z,1.95
2018-01-28T21:28:23.550Z,1.98
2018-01-28T21:30:51.602Z,1.98
2018-01-28T21:33:19.665Z,1.92
2018-01-28T21:35:47.729Z,1.89
2018-01-28T21:38:15.820Z,1.92
2018-01-28T21:40:43.891Z,1.91
2018-01-28T21:43:11.770Z,1.85
2018-01-28T21:45:39.829Z,1.85
2018-01-28T21:48:08.729Z,1.80
2018-01-28T21:50:36.761Z,1.85
2018-01-28T21:53:04.751Z,1.78
2018-01-28T21:55:32.620Z,1.75
2018-01-28T21:58:00.662Z,1.70
2018-01-28T22:00:29.472Z,1.72
2018-01-28T22:02:57.494Z,1.66
2018-01-28T22:05:26.211Z,1.76
2018-01-28T22:07:54.343Z,1.79
2018-01-28T22:10:24.032Z,1.73
2018-01-28T22:12:52.106Z,1.75
2018-01-28T22:15:20.400Z,1.71
2018-01-28T22:17:48.384Z,1.66
2018-01-28T22:20:16.726Z,1.54
2018-01-28T22:22:44.709Z,1.53
2018-01-28T22:25:12.571Z,1.63
2018-01-28T22:27:40.389Z,1.65
2018-01-28T22:30:08.950Z,1.66
2018-01-28T22:32:38.014Z,1.54
2018-01-28T22:35:05.945Z,1.37
2018-01-28T22:37:34.358Z,1.34
2018-01-28T22:40:02.427Z,1.35
2018-01-28T22:42:30.491Z,1.32
2018-01-28T22:44:58.560Z,1.28
2018-01-28T22:47:26.499Z,1.32
2018-01-28T22:49:54.417Z,1.29
2018-01-28T22:52:22.460Z,1.29
2018-01-28T22:54:50.453Z,1.34
2018-01-28T22:57:18.515Z,1.18
2018-01-28T22:59:46.607Z,1.18
2018-01-28T23:02:14.669Z,1.08
2018-01-28T23:04:42.739Z,1.14
2018-01-28T23:07:10.986Z,1.24
2018-01-28T23:09:39.098Z,1.26
2018-01-28T23:12:07.191Z,1.24
2018-01-28T23:14:35.289Z,1.23
2018-01-28T23:17:03.150Z,1.12
2018-01-28T23:19:30.996Z,1.22
2018-01-28T23:21:58.889Z,1.25
2018-01-28T23:24:26.704Z,1.22
2018-01-28T23:26:55.045Z,1.16
2018-01-28T23:29:23.152Z,1.18
2018-01-28T23:31:51.221Z,1.11
2018-01-28T23:34:19.298Z,1.11
2018-01-28T23:36:47.373Z,0.98
2018-01-28T23:39:15.304Z,0.98
2018-01-28T23:41:43.304Z,0.94
2018-01-28T23:44:11.241Z,0.87
2018-01-28T23:46:39.244Z,0.94
2018-01-28T23:49:07.118Z,0.85
2018-01-28T23:51:34.985Z,0.76
2018-01-28T23:54:03.325Z,0.86
2018-01-28T23:56:31.428Z,0.92
2018-01-28T23:58:59.302Z,0.95
